createdAt,value
2023-02-11T00:00:43.103Z,25.20
2023-02-11T00:03:09.921Z,26.10
2023-02-11T00:05:36.732Z,26.40
2023-02-11T00:08:03.696Z,25.20
2023-02-11T00:10:30.273Z,26.10
2023-02-11T00:12:57.422Z,26.20
2023-02-11T00:15:24.073Z,24.20
2023-02-11T00:17:50.600Z,26.50
2023-02-11T00:20:17.268Z,23.90
2023-02-11T00:22:43.881Z,26.00
2023-02-11T00:25:10.484Z,27.20
2023-02-11T00:27:37.773Z,27.20
2023-02-11T00:30:05.319Z,26.40
2023-02-11T00:32:32.214Z,27.10
2023-02-11T00:34:58.923Z,27.20
2023-02-11T00:37:25.622Z,27.10
2023-02-11T00:39:52.386Z,27.00
2023-02-11T00:42:19.094Z,27.30
2023-02-11T00:44:45.896Z,27.30
2023-02-11T00:47:12.713Z,26.20
2023-02-11T00:49:40.466Z,27.60
2023-02-11T00:52:07.184Z,28.70
2023-02-11T00:54:34.058Z,27.80
2023-02-11T00:57:00.633Z,26.10
2023-02-11T00:59:27.446Z,28.20
2023-02-11T01:01:54.253Z,28.10
2023-02-11T01:04:20.868Z,27.80
2023-02-11T01:06:47.896Z,27.40
2023-02-11T01:09:14.489Z,28.20
2023-02-11T01:11:41.198Z,29.60
2023-02-11T01:14:08.349Z,28.60
2023-02-11T01:16:35.341Z,25.10
2023-02-11T01:19:02.191Z,28.30
2023-02-11T01:21:29.021Z,27.90
2023-02-11T01:23:55.936Z,27.10
2023-02-11T01:26:22.645Z,29.40
2023-02-11T01:28:49.310Z,28.20
2023-02-11T01:31:16.317Z,29.30
2023-02-11T01:33:43.349Z,27.50
2023-02-11T01:36:11.939Z,29.30
2023-02-11T01:38:40.038Z,27.70
2023-02-11T01:41:10.517Z,28.20
2023-02-11T01:43:47.969Z,26.80
2023-02-11T01:46:31.491Z,31.70
2023-02-11T01:49:04.625Z,31.00
2023-02-11T01:51:39.422Z,30.50
2023-02-11T01:54:28.265Z,33.40
2023-02-11T01:57:30.139Z,34.40
2023-02-11T02:00:10.331Z,34.30
2023-02-11T02:02:51.966Z,32.20
2023-02-11T02:06:01.773Z,33.50
2023-02-11T02:08:50.198Z,33.80
2023-02-11T02:11:17.437Z,34.70
2023-02-11T02:13:44.710Z,31.70
2023-02-11T02:16:14.107Z,35.00
2023-02-11T02:19:18.242Z,35.50
2023-02-11T02:21:54.076Z,34.50
2023-02-11T02:24:58.915Z,31.10
2023-02-11T02:27:59.716Z,32.50
2023-02-11T02:30:50.976Z,32.90
2023-02-11T02:33:25.373Z,34.40
2023-02-11T02:35:55.538Z,34.80
2023-02-11T02:38:31.500Z,34.90
2023-02-11T02:41:10.291Z,31.50
2023-02-11T02:43:41.034Z,31.10
2023-02-11T02:46:16.236Z,32.90
2023-02-11T02:48:43.946Z,29.80
2023-02-11T02:51:22.636Z,30.90
2023-02-11T02:54:02.127Z,30.30
2023-02-11T02:56:46.194Z,32.30
2023-02-11T02:59:26.491Z,31.90
2023-02-11T03:02:11.040Z,29.60
2023-02-11T03:04:52.024Z,31.30
2023-02-11T03:07:34.152Z,33.90
2023-02-11T03:10:08.150Z,29.10
2023-02-11T03:12:35.837Z,28.80
2023-02-11T03:15:06.858Z,30.60
2023-02-11T03:17:36.100Z,29.00
2023-02-11T03:20:04.935Z,31.20
2023-02-11T03:22:48.678Z,27.00
2023-02-11T03:25:16.085Z,31.00
2023-02-11T03:27:57.661Z,32.10
2023-02-11T03:30:44.912Z,31.90
2023-02-11T03:33:22.390Z,31.10
2023-02-11T03:36:00.370Z,30.30
2023-02-11T03:38:33.673Z,31.00
2023-02-11T03:41:03.145Z,31.80
2023-02-11T03:43:42.300Z,30.50
2023-02-11T03:46:11.248Z,31.10
2023-02-11T03:48:44.868Z,31.30
2023-02-11T03:51:13.629Z,32.00
2023-02-11T03:53:43.460Z,30.20
2023-02-11T03:56:16.901Z,30.10
2023-02-11T03:58:47.938Z,29.40
2023-02-11T04:01:15.168Z,28.90
2023-02-11T04:03:42.521Z,29.90
2023-02-11T04:06:09.628Z,30.10
2023-02-11T04:08:36.812Z,30.90
2023-02-11T04:11:03.649Z,30.90
2023-02-11T04:13:30.718Z,26.80
2023-02-11T04:15:57.574Z,29.60
2023-02-11T04:18:24.565Z,31.10
2023-02-11T04:20:51.475Z,28.80
2023-02-11T04:23:18.693Z,24.70
2023-02-11T04:25:45.656Z,28.70
2023-02-11T04:28:12.657Z,30.40
2023-02-11T04:30:39.442Z,29.90
2023-02-11T04:33:06.217Z,30.10
2023-02-11T04:35:33.375Z,32.20
2023-02-11T04:38:00.122Z,30.20
2023-02-11T04:40:27.429Z,28.90
2023-02-11T04:42:54.236Z,31.90
2023-02-11T04:45:20.965Z,30.60
2023-02-11T04:47:47.600Z,29.90
2023-02-11T04:50:15.034Z,28.00
2023-02-11T04:52:41.672Z,27.30
2023-02-11T04:55:08.976Z,25.10
2023-02-11T04:57:36.208Z,29.10
2023-02-11T05:00:04.048Z,28.50
2023-02-11T05:02:30.742Z,26.20
2023-02-11T05:04:57.538Z,29.50
2023-02-11T05:33:41.425Z,25.10
2023-02-11T05:36:12.024Z,24.90
2023-02-11T05:38:38.903Z,22.70
2023-02-11T05:41:06.934Z,22.00
2023-02-11T05:43:35.320Z,22.40
2023-02-11T05:46:03.450Z,23.00
2023-02-11T05:48:30.392Z,23.60
2023-02-11T05:50:57.542Z,23.00
2023-02-11T05:53:24.422Z,21.30
2023-02-11T05:55:51.717Z,23.50
2023-02-11T05:58:18.934Z,21.40
2023-02-11T06:00:46.254Z,22.50
2023-02-11T06:03:13.123Z,24.20
2023-02-11T06:05:40.059Z,22.50
2023-02-11T06:08:07.417Z,22.20
2023-02-11T06:10:34.703Z,20.80
2023-02-11T06:13:02.102Z,23.30
2023-02-11T06:15:29.038Z,22.60
2023-02-11T06:17:56.302Z,22.50
2023-02-11T06:20:23.239Z,23.00
2023-02-11T06:22:50.164Z,22.00
2023-02-11T06:25:17.308Z,22.90
2023-02-11T06:27:44.456Z,22.50
2023-02-11T06:30:11.940Z,23.50
2023-02-11T06:32:44.407Z,21.90
2023-02-11T06:35:13.664Z,22.50
2023-02-11T06:37:42.188Z,23.20
2023-02-11T06:40:10.510Z,24.00
2023-02-11T06:42:39.189Z,22.30
2023-02-11T06:45:09.050Z,20.90
2023-02-11T06:47:35.849Z,22.80
2023-02-11T06:50:05.867Z,21.70
2023-02-11T06:52:33.064Z,22.10
2023-02-11T06:55:00.050Z,22.80
2023-02-11T06:57:27.078Z,20.70
2023-02-11T06:59:53.860Z,21.30
2023-02-11T07:02:21.363Z,22.90
2023-02-11T07:04:48.944Z,19.80
2023-02-11T07:07:16.296Z,20.40
2023-02-11T07:09:43.693Z,21.90
2023-02-11T07:12:10.742Z,18.80
2023-02-11T07:14:37.797Z,22.40
2023-02-11T07:17:05.159Z,19.50
2023-02-11T07:19:31.914Z,18.90
2023-02-11T07:21:58.866Z,21.20
2023-02-11T07:24:25.833Z,18.80
2023-02-11T07:26:53.525Z,22.20
2023-02-11T07:29:20.478Z,22.30
2023-02-11T07:31:47.422Z,22.00
2023-02-11T07:34:15.023Z,22.00
2023-02-11T07:36:43.754Z,19.80
2023-02-11T07:39:10.590Z,21.60
2023-02-11T07:41:38.214Z,22.20
2023-02-11T07:44:05.680Z,23.40
2023-02-11T07:46:32.914Z,22.80
2023-02-11T07:49:00.331Z,22.30
2023-02-11T07:51:30.436Z,19.80
2023-02-11T07:53:59.550Z,21.30
2023-02-11T07:56:27.491Z,23.90
2023-02-11T07:58:54.858Z,23.20
2023-02-11T08:01:25.501Z,22.10
2023-02-11T08:03:52.713Z,20.40
2023-02-11T08:06:22.305Z,21.80
2023-02-11T08:08:49.661Z,19.40
2023-02-11T08:11:20.710Z,20.90
2023-02-11T08:13:48.105Z,19.80
2023-02-11T08:16:24.016Z,22.20
2023-02-11T08:18:51.691Z,22.50
2023-02-11T08:21:18.995Z,20.00
2023-02-11T08:23:46.241Z,21.20
2023-02-11T08:26:24.612Z,21.00
2023-02-11T08:28:53.485Z,21.80
2023-02-11T08:31:33.451Z,21.40
2023-02-11T08:34:02.306Z,19.80
2023-02-11T08:36:32.596Z,21.50
2023-02-11T08:39:17.379Z,22.50
2023-02-11T08:41:45.696Z,22.10
2023-02-11T08:44:13.084Z,21.60
2023-02-11T08:46:40.031Z,21.30
2023-02-11T08:49:06.913Z,20.10
2023-02-11T08:51:34.117Z,19.00
2023-02-11T08:54:01.210Z,20.90
2023-02-11T08:56:30.924Z,19.80
2023-02-11T08:58:57.845Z,20.10
2023-02-11T09:01:27.250Z,21.30
2023-02-11T09:03:54.654Z,19.30
2023-02-11T09:06:22.907Z,20.50
2023-02-11T09:08:52.110Z,19.80
2023-02-11T09:11:21.230Z,20.40
2023-02-11T09:13:48.440Z,17.80
2023-02-11T09:16:24.425Z,16.80
2023-02-11T09:18:51.818Z,19.50
2023-02-11T09:21:19.349Z,18.00
2023-02-11T09:23:47.907Z,16.50
2023-02-11T09:26:30.066Z,17.50
2023-02-11T09:28:57.814Z,16.90
2023-02-11T09:31:27.709Z,18.00
2023-02-11T09:33:57.355Z,16.40
2023-02-11T09:36:28.926Z,16.80
2023-02-11T09:38:58.465Z,15.30
2023-02-11T09:41:46.988Z,16.30
2023-02-11T09:44:34.439Z,18.40
2023-02-11T09:47:25.576Z,14.90
2023-02-11T09:50:05.536Z,17.40
2023-02-11T09:52:51.803Z,18.70
2023-02-11T09:55:21.472Z,18.80
2023-02-11T09:57:48.736Z,18.00
2023-02-11T10:00:38.405Z,16.30
2023-02-11T10:03:38.035Z,16.90
2023-02-11T10:06:13.201Z,15.10
2023-02-11T10:09:21.267Z,16.50
2023-02-11T10:12:09.361Z,17.60
2023-02-11T10:15:00.726Z,17.50
2023-02-11T10:17:34.536Z,16.60
2023-02-11T10:20:04.203Z,15.90
2023-02-11T10:22:47.667Z,17.40
2023-02-11T10:25:26.412Z,18.80
2023-02-11T10:27:56.119Z,17.90
2023-02-11T10:30:31.699Z,17.40
2023-02-11T10:33:12.376Z,15.40
2023-02-11T10:35:39.130Z,17.20
2023-02-11T10:38:05.974Z,15.90
2023-02-11T10:40:33.793Z,17.80
2023-02-11T10:43:08.336Z,18.00
2023-02-11T10:45:43.262Z,17.30
2023-02-11T10:48:40.028Z,17.50
2023-02-11T10:51:26.593Z,16.30
2023-02-11T10:54:21.178Z,16.40
2023-02-11T10:56:59.483Z,18.10
2023-02-11T10:59:31.326Z,17.80
2023-02-11T11:02:02.134Z,16.40
2023-02-11T11:04:44.079Z,18.20
2023-02-11T11:07:16.885Z,17.80
2023-02-11T11:09:51.813Z,19.10
2023-02-11T11:12:27.327Z,17.80
2023-02-11T11:15:13.761Z,15.60
2023-02-11T11:17:40.610Z,18.20
2023-02-11T11:20:25.028Z,18.00
2023-02-11T11:23:07.458Z,17.70
2023-02-11T11:25:38.458Z,17.60
2023-02-11T11:28:05.604Z,17.70
2023-02-11T11:30:41.395Z,18.90
2023-02-11T11:33:21.305Z,17.80
2023-02-11T11:36:01.480Z,17.70
2023-02-11T11:38:30.262Z,17.30
2023-02-11T11:41:15.614Z,17.40
2023-02-11T11:43:55.229Z,17.10
2023-02-11T11:46:34.494Z,18.30
2023-02-11T11:49:28.311Z,18.80
2023-02-11T11:52:35.509Z,18.30
2023-02-11T11:55:25.626Z,16.90
2023-02-11T11:57:52.811Z,18.40
2023-02-11T12:00:41.604Z,16.40
2023-02-11T12:03:48.767Z,16.10
2023-02-11T12:06:26.715Z,15.80
2023-02-11T12:09:11.511Z,14.70
2023-02-11T12:12:06.462Z,15.30
2023-02-11T12:14:54.279Z,18.40
2023-02-11T12:17:37.679Z,15.50
2023-02-11T12:20:23.728Z,18.50
2023-02-11T12:23:10.390Z,18.10
2023-02-11T12:25:39.700Z,15.00
2023-02-11T12:28:22.629Z,16.10
2023-02-11T12:31:12.085Z,16.40
2023-02-11T12:33:58.247Z,16.90
2023-02-11T12:36:43.729Z,16.20
2023-02-11T12:39:34.311Z,17.60
2023-02-11T12:42:57.653Z,16.70
2023-02-11T12:45:49.694Z,15.60
2023-02-11T12:48:27.807Z,18.30
2023-02-11T12:51:09.405Z,15.30
2023-02-11T12:53:56.928Z,16.00
2023-02-11T12:56:38.779Z,18.20
2023-02-11T12:59:14.365Z,18.30
2023-02-11T13:01:44.681Z,16.30
2023-02-11T13:04:33.476Z,14.80
2023-02-11T13:07:05.572Z,16.40
2023-02-11T13:09:51.338Z,16.90
2023-02-11T13:12:36.837Z,17.50
2023-02-11T13:15:08.032Z,17.40
2023-02-11T13:17:50.053Z,18.40
2023-02-11T13:20:40.436Z,18.90
2023-02-11T13:23:34.847Z,19.30
2023-02-11T13:26:24.666Z,19.20
2023-02-11T13:29:15.946Z,20.20
2023-02-11T13:31:43.008Z,20.20
2023-02-11T13:34:45.008Z,19.80
2023-02-11T13:37:33.606Z,19.30
2023-02-11T13:40:02.664Z,18.40
2023-02-11T13:42:30.802Z,19.80
2023-02-11T13:44:57.844Z,20.20
2023-02-11T13:47:34.965Z,17.70
2023-02-11T13:50:06.339Z,20.60
2023-02-11T13:52:37.689Z,20.20
2023-02-11T13:55:24.162Z,18.50
2023-02-11T13:58:29.361Z,19.60
2023-02-11T14:00:56.808Z,18.80
2023-02-11T14:03:48.654Z,18.60
2023-02-11T14:06:39.523Z,19.00
2023-02-11T14:09:36.614Z,18.30
2023-02-11T14:12:26.138Z,19.80
2023-02-11T14:15:25.015Z,19.20
2023-02-11T14:17:52.590Z,19.30
2023-02-11T14:20:36.464Z,16.60
2023-02-11T14:23:04.799Z,18.40
2023-02-11T14:25:32.100Z,18.10
2023-02-11T14:28:23.349Z,17.80
2023-02-11T14:31:13.016Z,18.80
2023-02-11T14:33:59.324Z,18.60
2023-02-11T14:36:49.951Z,17.10
2023-02-11T14:39:28.296Z,19.20
2023-02-11T14:41:55.753Z,17.70
2023-02-11T14:44:27.080Z,18.10
2023-02-11T14:46:55.167Z,20.40
2023-02-11T14:49:37.269Z,18.60
2023-02-11T14:52:31.889Z,17.30
2023-02-11T14:55:17.690Z,19.60
2023-02-11T14:57:45.713Z,16.90
2023-02-11T15:00:23.121Z,19.80
2023-02-11T15:02:50.044Z,15.80
2023-02-11T15:05:22.644Z,19.70
2023-02-11T15:07:56.632Z,18.30
2023-02-11T15:10:41.695Z,18.30
2023-02-11T15:13:14.825Z,19.40
2023-02-11T15:15:41.670Z,18.20
2023-02-11T15:18:10.391Z,19.70
2023-02-11T15:20:37.163Z,19.10
2023-02-11T15:23:09.252Z,18.50
2023-02-11T15:25:43.464Z,19.90
2023-02-11T15:28:26.532Z,17.90
2023-02-11T15:31:13.519Z,20.10
2023-02-11T15:33:40.568Z,20.00
2023-02-11T15:36:11.233Z,21.30
2023-02-11T15:38:38.190Z,19.20
2023-02-11T15:41:07.560Z,20.60
2023-02-11T15:44:03.586Z,20.00
2023-02-11T15:46:38.497Z,18.50
2023-02-11T15:49:06.472Z,20.50
2023-02-11T15:51:39.954Z,19.60
2023-02-11T15:54:20.064Z,19.30
2023-02-11T15:56:50.854Z,20.60
2023-02-11T15:59:25.858Z,17.50
2023-02-11T16:01:54.495Z,17.80
2023-02-11T16:04:26.545Z,19.50
2023-02-11T16:06:54.721Z,20.50
2023-02-11T16:09:36.273Z,20.10
2023-02-11T16:12:30.054Z,19.00
2023-02-11T16:14:59.861Z,20.10
2023-02-11T16:17:29.450Z,18.80
2023-02-11T16:19:56.421Z,19.60
2023-02-11T16:22:27.659Z,21.20
2023-02-11T16:24:56.940Z,22.90
2023-02-11T16:27:30.529Z,20.20
2023-02-11T16:29:58.445Z,23.30
2023-02-11T16:32:27.960Z,21.50
2023-02-11T16:34:57.898Z,21.80
2023-02-11T16:37:25.837Z,20.40
2023-02-11T16:39:57.065Z,21.50
2023-02-11T16:42:24.391Z,20.90
2023-02-11T16:44:51.337Z,22.50
2023-02-11T16:47:26.532Z,20.80
2023-02-11T16:49:54.312Z,22.20
2023-02-11T16:52:21.911Z,23.40
2023-02-11T16:54:48.968Z,21.50
2023-02-11T16:57:21.283Z,18.90
2023-02-11T16:59:48.775Z,21.80
2023-02-11T17:02:35.032Z,22.70
2023-02-11T17:05:04.572Z,22.40
2023-02-11T17:07:31.957Z,22.00
2023-02-11T17:09:58.963Z,21.20
2023-02-11T17:12:26.258Z,18.80
2023-02-11T17:14:53.961Z,21.10
2023-02-11T17:17:23.496Z,21.20
2023-02-11T17:19:51.088Z,20.30
2023-02-11T17:22:18.691Z,20.80
2023-02-11T17:24:46.093Z,20.70
2023-02-11T17:27:13.682Z,18.80
2023-02-11T17:29:40.878Z,19.80
2023-02-11T17:32:07.734Z,19.50
2023-02-11T17:34:34.750Z,20.70
2023-02-11T17:37:08.572Z,19.60
2023-02-11T17:39:36.527Z,19.40
2023-02-11T17:42:04.427Z,19.70
2023-02-11T17:44:31.059Z,20.30
2023-02-11T17:46:58.007Z,20.20
2023-02-11T17:49:25.152Z,18.10
2023-02-11T17:51:52.169Z,21.40
2023-02-11T17:54:20.111Z,18.90
2023-02-11T17:56:49.283Z,20.70
2023-02-11T17:59:17.228Z,19.90
2023-02-11T18:01:43.829Z,20.10
2023-02-11T18:04:13.644Z,20.00
2023-02-11T18:06:40.883Z,21.30
2023-02-11T18:09:07.948Z,18.50
2023-02-11T18:11:37.559Z,19.80
2023-02-11T18:14:07.627Z,18.00
2023-02-11T18:16:36.615Z,20.90
2023-02-11T18:19:03.703Z,20.40
2023-02-11T18:21:30.680Z,19.40
2023-02-11T18:23:57.668Z,18.00
2023-02-11T18:26:28.141Z,17.50
2023-02-11T18:28:57.634Z,18.30
2023-02-11T18:31:25.785Z,18.10
2023-02-11T18:33:53.210Z,18.70
2023-02-11T18:36:21.035Z,19.80
2023-02-11T18:38:47.926Z,17.30
2023-02-11T18:41:15.215Z,18.80
2023-02-11T18:43:43.077Z,19.00
2023-02-11T18:46:11.939Z,18.10
2023-02-11T18:48:38.824Z,16.40
2023-02-11T18:51:14.670Z,14.20
2023-02-11T18:53:42.145Z,17.30
2023-02-11T18:56:14.260Z,15.20
2023-02-11T18:58:41.007Z,17.30
2023-02-11T19:01:14.996Z,15.60
2023-02-11T19:03:42.156Z,14.20
2023-02-11T19:06:14.662Z,16.20
2023-02-11T19:08:41.657Z,14.10
2023-02-11T19:11:08.786Z,14.30
2023-02-11T19:13:35.252Z,15.20
2023-02-11T19:16:07.751Z,15.10
2023-02-11T19:18:36.398Z,14.40
2023-02-11T19:21:10.563Z,15.00
2023-02-11T19:23:37.650Z,15.20
2023-02-11T19:26:06.452Z,14.30
2023-02-11T19:28:34.109Z,16.70
2023-02-11T19:31:09.673Z,17.20
2023-02-11T19:33:36.861Z,15.90
2023-02-11T19:36:07.730Z,16.90
2023-02-11T19:38:35.638Z,15.30
2023-02-11T19:41:02.766Z,16.10
2023-02-11T19:43:29.355Z,16.90
2023-02-11T19:45:57.390Z,17.80
2023-02-11T19:48:24.873Z,15.60
2023-02-11T19:50:51.654Z,15.90
2023-02-11T19:53:18.693Z,17.30
2023-02-11T19:55:45.525Z,16.50
2023-02-11T19:58:12.430Z,17.50
2023-02-11T20:00:39.379Z,18.20
2023-02-11T20:03:05.914Z,16.20
2023-02-11T20:05:32.661Z,17.80
2023-02-11T20:07:59.617Z,18.40
2023-02-11T20:10:26.717Z,17.90
2023-02-11T20:12:53.390Z,16.00
2023-02-11T20:15:20.142Z,18.30
2023-02-11T20:17:47.151Z,17.80
2023-02-11T20:20:14.290Z,16.90
2023-02-11T20:22:40.920Z,17.10
2023-02-11T20:25:07.900Z,17.30
2023-02-11T20:27:34.636Z,18.90
2023-02-11T20:30:01.793Z,17.60
2023-02-11T20:32:30.593Z,18.90
2023-02-11T20:34:58.881Z,18.60
2023-02-11T20:37:25.542Z,19.50
2023-02-11T20:39:52.394Z,18.80
2023-02-11T20:42:19.306Z,17.30
2023-02-11T20:44:46.192Z,17.30
2023-02-11T20:47:13.474Z,19.10
2023-02-11T20:49:40.040Z,20.40
2023-02-11T20:52:08.194Z,19.00
2023-02-11T20:54:35.038Z,19.60
2023-02-11T20:57:02.423Z,18.20
2023-02-11T20:59:29.155Z,19.00
2023-02-11T21:01:57.160Z,16.90
2023-02-11T21:04:29.423Z,19.90
2023-02-11T21:06:58.513Z,19.80
2023-02-11T21:09:27.618Z,20.40
2023-02-11T21:11:55.237Z,21.20
2023-02-11T21:14:23.968Z,21.10
2023-02-11T21:16:51.075Z,20.70
2023-02-11T21:19:18.278Z,19.90
2023-02-11T21:21:45.451Z,21.30
2023-02-11T21:24:12.675Z,20.90
2023-02-11T21:26:39.461Z,19.50
2023-02-11T21:29:07.372Z,20.60
2023-02-11T21:31:34.950Z,18.70
2023-02-11T21:34:02.447Z,21.00
2023-02-11T21:36:29.985Z,20.10
2023-02-11T21:38:56.958Z,19.20
2023-02-11T21:41:24.764Z,19.60
2023-02-11T21:43:51.870Z,20.20
2023-02-11T21:46:19.007Z,18.70
2023-02-11T21:48:45.714Z,18.50
2023-02-11T21:51:20.578Z,18.70
2023-02-11T21:53:47.334Z,17.50
2023-02-11T21:56:16.621Z,15.90
2023-02-11T21:58:43.820Z,17.10
2023-02-11T22:01:16.710Z,17.60
2023-02-11T22:03:44.205Z,17.80
2023-02-11T22:06:13.276Z,16.60
2023-02-11T22:08:40.224Z,15.10
2023-02-11T22:11:10.044Z,14.90
2023-02-11T22:13:37.275Z,14.90
2023-02-11T22:16:06.229Z,15.50
2023-02-11T22:18:33.060Z,14.80
2023-02-11T22:21:01.744Z,16.10
2023-02-11T22:23:29.415Z,14.60
2023-02-11T22:25:57.337Z,13.90
2023-02-11T22:28:27.624Z,14.40
2023-02-11T22:30:57.988Z,14.90
2023-02-11T22:33:26.371Z,15.80
2023-02-11T22:36:05.562Z,16.10
2023-02-11T22:38:33.229Z,14.30
2023-02-11T22:41:05.111Z,14.40
2023-02-11T22:43:31.750Z,14.10
2023-02-11T22:46:03.154Z,14.60
2023-02-11T22:48:30.089Z,14.60
2023-02-11T22:50:56.920Z,14.70
2023-02-11T22:53:27.314Z,14.30
2023-02-11T22:55:54.700Z,14.60
2023-02-11T22:58:22.254Z,13.60
2023-02-11T23:00:49.207Z,15.50
2023-02-11T23:03:16.012Z,14.00
2023-02-11T23:05:42.886Z,14.10
2023-02-11T23:08:10.905Z,13.90
2023-02-11T23:10:39.219Z,14.30
2023-02-11T23:13:07.510Z,14.80
2023-02-11T23:15:34.528Z,15.10
2023-02-11T23:18:01.664Z,14.20
2023-02-11T23:20:28.874Z,13.40
2023-02-11T23:22:55.645Z,13.30
2023-02-11T23:25:22.241Z,13.30
2023-02-11T23:27:48.992Z,14.80
2023-02-11T23:30:16.166Z,13.40
2023-02-11T23:32:43.152Z,13.70
2023-02-11T23:35:10.129Z,14.60
2023-02-11T23:37:37.053Z,14.80
2023-02-11T23:40:04.289Z,13.40
2023-02-11T23:42:31.210Z,14.70
2023-02-11T23:44:58.101Z,13.40
2023-02-11T23:47:25.055Z,14.30
2023-02-11T23:49:51.790Z,14.40
2023-02-11T23:52:18.711Z,14.40
2023-02-11T23:54:48.135Z,14.60
2023-02-11T23:57:15.129Z,15.20
2023-02-11T23:59:43.166Z,14.50
